sensor_id;sensor_type;location;lat;lon;timestamp;P1;durP1;ratioP1;P2;durP2;ratioP2
3155;SDS011;1588;50.892;7.082;2023-12-07T00:04:45;27.30;;;10.00;;
3155;SDS011;1588;50.892;7.082;2023-12-07T00:09:54;34.63;;;11.60;;
3155;SDS011;1588;50.892;7.082;2023-12-07T00:14:57;21.07;;;10.10;;
3155;SDS011;1588;50.892;7.082;2023-12-07T00:19:59;28.57;;;10.23;;
3155;SDS011;1588;50.892;7.082;2023-12-07T00:25:04;23.23;;;9.63;;
3155;SDS011;1588;50.892;7.082;2023-12-07T00:30:11;25.63;;;9.00;;
3155;SDS011;1588;50.892;7.082;2023-12-07T00:35:14;25.50;;;8.97;;
3155;SDS011;1588;50.892;7.082;2023-12-07T00:40:18;30.47;;;11.10;;
3155;SDS011;1588;50.892;7.082;2023-12-07T00:45:22;26.90;;;8.57;;
3155;SDS011;1588;50.892;7.082;2023-12-07T00:50:25;27.60;;;10.07;;
3155;SDS011;1588;50.892;7.082;2023-12-07T00:55:29;27.03;;;9.67;;
3155;SDS011;1588;50.892;7.082;2023-12-07T01:00:32;28.23;;;10.50;;
3155;SDS011;1588;50.892;7.082;2023-12-07T01:05:35;31.73;;;10.93;;
3155;SDS011;1588;50.892;7.082;2023-12-07T01:10:38;29.40;;;10.10;;
3155;SDS011;1588;50.892;7.082;2023-12-07T01:15:41;29.30;;;11.17;;
3155;SDS011;1588;50.892;7.082;2023-12-07T01:20:43;26.50;;;10.47;;
3155;SDS011;1588;50.892;7.082;2023-12-07T01:25:47;32.50;;;11.30;;
3155;SDS011;1588;50.892;7.082;2023-12-07T01:30:49;25.53;;;10.63;;
3155;SDS011;1588;50.892;7.082;2023-12-07T01:35:51;34.53;;;11.57;;
3155;SDS011;1588;50.892;7.082;2023-12-07T01:40:56;44.30;;;12.13;;
3155;SDS011;1588;50.892;7.082;2023-12-07T01:45:58;31.67;;;11.40;;
3155;SDS011;1588;50.892;7.082;2023-12-07T01:51:02;27.67;;;10.90;;
3155;SDS011;1588;50.892;7.082;2023-12-07T01:56:06;30.67;;;12.30;;
3155;SDS011;1588;50.892;7.082;2023-12-07T02:01:11;31.30;;;11.80;;
3155;SDS011;1588;50.892;7.082;2023-12-07T02:06:13;35.67;;;12.40;;
3155;SDS011;1588;50.892;7.082;2023-12-07T02:11:18;30.23;;;11.77;;
3155;SDS011;1588;50.892;7.082;2023-12-07T02:16:21;25.80;;;10.37;;
3155;SDS011;1588;50.892;7.082;2023-12-07T02:21:33;35.50;;;12.17;;
3155;SDS011;1588;50.892;7.082;2023-12-07T02:26:41;42.57;;;12.77;;
3155;SDS011;1588;50.892;7.082;2023-12-07T02:31:43;34.70;;;12.33;;
3155;SDS011;1588;50.892;7.082;2023-12-07T02:36:46;32.63;;;11.73;;
3155;SDS011;1588;50.892;7.082;2023-12-07T02:41:54;46.17;;;13.50;;
3155;SDS011;1588;50.892;7.082;2023-12-07T02:46:58;35.70;;;12.60;;
3155;SDS011;1588;50.892;7.082;2023-12-07T02:52:00;31.47;;;11.60;;
3155;SDS011;1588;50.892;7.082;2023-12-07T02:57:04;31.10;;;11.60;;
3155;SDS011;1588;50.892;7.082;2023-12-07T03:02:06;37.10;;;11.80;;
3155;SDS011;1588;50.892;7.082;2023-12-07T03:07:09;31.83;;;12.13;;
3155;SDS011;1588;50.892;7.082;2023-12-07T03:12:16;37.97;;;11.87;;
3155;SDS011;1588;50.892;7.082;2023-12-07T03:17:19;32.03;;;12.40;;
3155;SDS011;1588;50.892;7.082;2023-12-07T03:22:21;28.00;;;10.37;;
3155;SDS011;1588;50.892;7.082;2023-12-07T03:27:28;33.60;;;12.43;;
3155;SDS011;1588;50.892;7.082;2023-12-07T03:32:30;27.80;;;10.73;;
3155;SDS011;1588;50.892;7.082;2023-12-07T03:37:35;32.47;;;12.30;;
3155;SDS011;1588;50.892;7.082;2023-12-07T03:42:40;35.57;;;13.00;;
3155;SDS011;1588;50.892;7.082;2023-12-07T03:48:03;33.63;;;13.03;;
3155;SDS011;1588;50.892;7.082;2023-12-07T03:53:05;33.23;;;12.80;;
3155;SDS011;1588;50.892;7.082;2023-12-07T03:58:09;38.83;;;13.70;;
3155;SDS011;1588;50.892;7.082;2023-12-07T04:03:13;36.50;;;12.90;;
3155;SDS011;1588;50.892;7.082;2023-12-07T04:08:16;30.63;;;12.20;;
3155;SDS011;1588;50.892;7.082;2023-12-07T04:13:20;33.43;;;11.53;;
3155;SDS011;1588;50.892;7.082;2023-12-07T04:18:22;26.13;;;10.93;;
3155;SDS011;1588;50.892;7.082;2023-12-07T04:23:25;33.33;;;13.20;;
3155;SDS011;1588;50.892;7.082;2023-12-07T04:28:29;39.37;;;13.00;;
3155;SDS011;1588;50.892;7.082;2023-12-07T04:33:31;28.57;;;10.93;;
3155;SDS011;1588;50.892;7.082;2023-12-07T04:38:37;31.27;;;12.73;;
3155;SDS011;1588;50.892;7.082;2023-12-07T04:43:42;31.77;;;12.87;;
3155;SDS011;1588;50.892;7.082;2023-12-07T04:48:44;26.60;;;11.30;;
3155;SDS011;1588;50.892;7.082;2023-12-07T04:53:47;24.00;;;9.90;;
3155;SDS011;1588;50.892;7.082;2023-12-07T04:58:50;19.43;;;9.50;;
3155;SDS011;1588;50.892;7.082;2023-12-07T05:03:53;23.17;;;9.83;;
3155;SDS011;1588;50.892;7.082;2023-12-07T05:08:55;28.43;;;10.70;;
3155;SDS011;1588;50.892;7.082;2023-12-07T05:13:59;25.77;;;10.00;;
3155;SDS011;1588;50.892;7.082;2023-12-07T05:19:01;23.23;;;9.83;;
3155;SDS011;1588;50.892;7.082;2023-12-07T05:24:04;26.47;;;9.47;;
3155;SDS011;1588;50.892;7.082;2023-12-07T05:29:08;26.77;;;11.03;;
3155;SDS011;1588;50.892;7.082;2023-12-07T05:34:11;25.47;;;10.10;;
3155;SDS011;1588;50.892;7.082;2023-12-07T05:39:14;27.20;;;11.33;;
3155;SDS011;1588;50.892;7.082;2023-12-07T05:44:19;25.87;;;10.17;;
3155;SDS011;1588;50.892;7.082;2023-12-07T05:49:23;22.67;;;9.90;;
3155;SDS011;1588;50.892;7.082;2023-12-07T05:54:31;23.23;;;10.50;;
3155;SDS011;1588;50.892;7.082;2023-12-07T05:59:38;24.80;;;9.77;;
3155;SDS011;1588;50.892;7.082;2023-12-07T06:04:45;23.67;;;9.47;;
3155;SDS011;1588;50.892;7.082;2023-12-07T06:09:47;29.00;;;10.50;;
3155;SDS011;1588;50.892;7.082;2023-12-07T06:14:51;33.70;;;10.03;;
3155;SDS011;1588;50.892;7.082;2023-12-07T06:19:53;21.73;;;9.80;;
3155;SDS011;1588;50.892;7.082;2023-12-07T06:24:56;39.37;;;11.70;;
3155;SDS011;1588;50.892;7.082;2023-12-07T06:29:59;25.60;;;11.53;;
3155;SDS011;1588;50.892;7.082;2023-12-07T06:35:02;31.23;;;12.30;;
3155;SDS011;1588;50.892;7.082;2023-12-07T06:40:07;24.37;;;10.70;;
3155;SDS011;1588;50.892;7.082;2023-12-07T06:45:12;30.23;;;11.30;;
3155;SDS011;1588;50.892;7.082;2023-12-07T06:50:15;25.60;;;10.93;;
3155;SDS011;1588;50.892;7.082;2023-12-07T06:55:17;30.70;;;12.00;;
3155;SDS011;1588;50.892;7.082;2023-12-07T07:00:21;25.50;;;10.63;;
3155;SDS011;1588;50.892;7.082;2023-12-07T07:05:25;22.87;;;10.77;;
3155;SDS011;1588;50.892;7.082;2023-12-07T07:10:30;28.23;;;11.77;;
3155;SDS011;1588;50.892;7.082;2023-12-07T07:15:34;27.67;;;10.60;;
3155;SDS011;1588;50.892;7.082;2023-12-07T07:20:37;29.57;;;10.93;;
3155;SDS011;1588;50.892;7.082;2023-12-07T07:25:39;33.37;;;11.87;;
3155;SDS011;1588;50.892;7.082;2023-12-07T07:30:43;25.37;;;10.73;;
3155;SDS011;1588;50.892;7.082;2023-12-07T07:35:46;30.97;;;12.13;;
3155;SDS011;1588;50.892;7.082;2023-12-07T07:40:49;35.30;;;12.13;;
3155;SDS011;1588;50.892;7.082;2023-12-07T07:46:03;33.77;;;11.33;;
3155;SDS011;1588;50.892;7.082;2023-12-07T07:51:05;26.93;;;10.23;;
3155;SDS011;1588;50.892;7.082;2023-12-07T07:56:08;30.93;;;11.57;;
3155;SDS011;1588;50.892;7.082;2023-12-07T08:01:12;32.70;;;11.60;;
3155;SDS011;1588;50.892;7.082;2023-12-07T08:06:17;32.93;;;11.50;;
3155;SDS011;1588;50.892;7.082;2023-12-07T08:11:20;41.93;;;14.30;;
3155;SDS011;1588;50.892;7.082;2023-12-07T08:16:26;32.07;;;12.73;;
3155;SDS011;1588;50.892;7.082;2023-12-07T08:21:29;39.43;;;13.87;;
3155;SDS011;1588;50.892;7.082;2023-12-07T08:26:32;35.13;;;13.50;;
3155;SDS011;1588;50.892;7.082;2023-12-07T08:31:35;35.50;;;13.83;;
3155;SDS011;1588;50.892;7.082;2023-12-07T08:36:38;37.70;;;13.60;;
3155;SDS011;1588;50.892;7.082;2023-12-07T08:41:40;42.97;;;15.00;;
3155;SDS011;1588;50.892;7.082;2023-12-07T08:46:44;48.07;;;15.37;;
3155;SDS011;1588;50.892;7.082;2023-12-07T08:51:47;45.40;;;14.83;;
3155;SDS011;1588;50.892;7.082;2023-12-07T08:56:50;40.30;;;15.23;;
3155;SDS011;1588;50.892;7.082;2023-12-07T09:01:55;39.53;;;13.13;;
3155;SDS011;1588;50.892;7.082;2023-12-07T09:07:00;40.80;;;12.90;;
3155;SDS011;1588;50.892;7.082;2023-12-07T09:12:05;46.17;;;14.50;;
3155;SDS011;1588;50.892;7.082;2023-12-07T09:17:12;28.90;;;11.97;;
3155;SDS011;1588;50.892;7.082;2023-12-07T09:22:16;30.23;;;12.30;;
3155;SDS011;1588;50.892;7.082;2023-12-07T09:27:19;32.87;;;13.00;;
3155;SDS011;1588;50.892;7.082;2023-12-07T09:32:29;27.60;;;11.33;;
3155;SDS011;1588;50.892;7.082;2023-12-07T09:37:34;29.33;;;11.60;;
3155;SDS011;1588;50.892;7.082;2023-12-07T09:42:39;30.70;;;11.73;;
3155;SDS011;1588;50.892;7.082;2023-12-07T09:47:48;35.33;;;12.10;;
3155;SDS011;1588;50.892;7.082;2023-12-07T09:53:03;31.53;;;12.67;;
3155;SDS011;1588;50.892;7.082;2023-12-07T09:58:06;38.23;;;13.20;;
3155;SDS011;1588;50.892;7.082;2023-12-07T10:03:10;28.87;;;12.50;;
3155;SDS011;1588;50.892;7.082;2023-12-07T10:08:26;33.20;;;11.30;;
3155;SDS011;1588;50.892;7.082;2023-12-07T10:13:30;29.43;;;12.20;;
3155;SDS011;1588;50.892;7.082;2023-12-07T10:18:37;36.07;;;13.43;;
3155;SDS011;1588;50.892;7.082;2023-12-07T10:23:41;36.20;;;12.40;;
3155;SDS011;1588;50.892;7.082;2023-12-07T10:28:48;28.70;;;11.80;;
3155;SDS011;1588;50.892;7.082;2023-12-07T10:33:55;28.87;;;10.77;;
3155;SDS011;1588;50.892;7.082;2023-12-07T10:38:57;31.10;;;12.43;;
3155;SDS011;1588;50.892;7.082;2023-12-07T10:44:00;25.00;;;11.17;;
3155;SDS011;1588;50.892;7.082;2023-12-07T10:49:07;27.83;;;11.50;;
3155;SDS011;1588;50.892;7.082;2023-12-07T10:54:14;27.43;;;11.17;;
3155;SDS011;1588;50.892;7.082;2023-12-07T10:59:19;33.53;;;10.20;;
3155;SDS011;1588;50.892;7.082;2023-12-07T11:04:26;22.67;;;9.93;;
3155;SDS011;1588;50.892;7.082;2023-12-07T11:09:32;27.43;;;9.67;;
3155;SDS011;1588;50.892;7.082;2023-12-07T11:14:41;21.83;;;9.07;;
3155;SDS011;1588;50.892;7.082;2023-12-07T11:19:45;22.07;;;10.50;;
3155;SDS011;1588;50.892;7.082;2023-12-07T11:24:52;22.20;;;8.40;;
3155;SDS011;1588;50.892;7.082;2023-12-07T11:30:02;23.60;;;8.93;;
3155;SDS011;1588;50.892;7.082;2023-12-07T11:35:13;19.07;;;8.50;;
3155;SDS011;1588;50.892;7.082;2023-12-07T11:40:18;22.43;;;9.70;;
3155;SDS011;1588;50.892;7.082;2023-12-07T11:45:35;29.07;;;9.00;;
3155;SDS011;1588;50.892;7.082;2023-12-07T11:50:54;18.77;;;8.43;;
3155;SDS011;1588;50.892;7.082;2023-12-07T11:56:03;21.03;;;7.73;;
3155;SDS011;1588;50.892;7.082;2023-12-07T12:01:07;23.03;;;7.70;;
3155;SDS011;1588;50.892;7.082;2023-12-07T12:06:11;16.60;;;7.37;;
3155;SDS011;1588;50.892;7.082;2023-12-07T12:11:14;28.13;;;7.60;;
3155;SDS011;1588;50.892;7.082;2023-12-07T12:16:17;21.80;;;8.03;;
3155;SDS011;1588;50.892;7.082;2023-12-07T12:21:21;24.57;;;9.00;;
3155;SDS011;1588;50.892;7.082;2023-12-07T12:26:23;23.83;;;8.67;;
3155;SDS011;1588;50.892;7.082;2023-12-07T12:31:26;14.33;;;7.80;;
3155;SDS011;1588;50.892;7.082;2023-12-07T12:36:31;19.37;;;8.10;;
3155;SDS011;1588;50.892;7.082;2023-12-07T12:41:33;18.17;;;7.93;;
3155;SDS011;1588;50.892;7.082;2023-12-07T12:46:36;17.23;;;7.23;;
3155;SDS011;1588;50.892;7.082;2023-12-07T12:51:41;15.17;;;7.30;;
3155;SDS011;1588;50.892;7.082;2023-12-07T12:56:45;18.80;;;7.80;;
3155;SDS011;1588;50.892;7.082;2023-12-07T13:01:51;25.77;;;7.23;;
3155;SDS011;1588;50.892;7.082;2023-12-07T13:06:55;23.10;;;7.57;;
3155;SDS011;1588;50.892;7.082;2023-12-07T13:11:58;23.37;;;8.10;;
3155;SDS011;1588;50.892;7.082;2023-12-07T13:17:01;13.20;;;6.90;;
3155;SDS011;1588;50.892;7.082;2023-12-07T13:22:11;15.63;;;5.90;;
3155;SDS011;1588;50.892;7.082;2023-12-07T13:27:14;14.53;;;6.23;;
3155;SDS011;1588;50.892;7.082;2023-12-07T13:32:18;10.33;;;5.37;;
3155;SDS011;1588;50.892;7.082;2023-12-07T13:37:23;15.30;;;6.40;;
3155;SDS011;1588;50.892;7.082;2023-12-07T13:42:25;14.07;;;6.50;;
3155;SDS011;1588;50.892;7.082;2023-12-07T13:47:29;15.53;;;6.33;;
3155;SDS011;1588;50.892;7.082;2023-12-07T13:52:33;15.50;;;6.57;;
3155;SDS011;1588;50.892;7.082;2023-12-07T13:57:36;10.40;;;5.53;;
3155;SDS011;1588;50.892;7.082;2023-12-07T14:02:40;14.07;;;6.13;;
3155;SDS011;1588;50.892;7.082;2023-12-07T14:07:45;16.00;;;6.63;;
3155;SDS011;1588;50.892;7.082;2023-12-07T14:12:48;15.23;;;5.33;;
3155;SDS011;1588;50.892;7.082;2023-12-07T14:17:53;11.07;;;5.53;;
3155;SDS011;1588;50.892;7.082;2023-12-07T14:22:57;22.30;;;6.50;;
3155;SDS011;1588;50.892;7.082;2023-12-07T14:28:04;15.33;;;6.37;;
3155;SDS011;1588;50.892;7.082;2023-12-07T14:33:10;12.33;;;5.90;;
3155;SDS011;1588;50.892;7.082;2023-12-07T14:38:15;14.40;;;5.77;;
3155;SDS011;1588;50.892;7.082;2023-12-07T14:43:21;18.83;;;7.13;;
3155;SDS011;1588;50.892;7.082;2023-12-07T14:48:26;13.17;;;6.17;;
3155;SDS011;1588;50.892;7.082;2023-12-07T14:53:30;13.40;;;5.77;;
3155;SDS011;1588;50.892;7.082;2023-12-07T14:58:33;21.03;;;6.20;;
3155;SDS011;1588;50.892;7.082;2023-12-07T15:03:44;13.93;;;6.37;;
3155;SDS011;1588;50.892;7.082;2023-12-07T15:08:48;18.30;;;5.40;;
3155;SDS011;1588;50.892;7.082;2023-12-07T15:13:51;13.10;;;5.13;;
3155;SDS011;1588;50.892;7.082;2023-12-07T15:18:54;15.53;;;5.70;;
3155;SDS011;1588;50.892;7.082;2023-12-07T15:23:58;14.50;;;6.50;;
3155;SDS011;1588;50.892;7.082;2023-12-07T15:29:01;15.80;;;6.23;;
3155;SDS011;1588;50.892;7.082;2023-12-07T15:34:04;15.80;;;7.40;;
3155;SDS011;1588;50.892;7.082;2023-12-07T15:39:11;14.50;;;6.47;;
3155;SDS011;1588;50.892;7.082;2023-12-07T15:44:18;19.43;;;8.10;;
3155;SDS011;1588;50.892;7.082;2023-12-07T15:49:20;14.43;;;6.80;;
3155;SDS011;1588;50.892;7.082;2023-12-07T15:54:24;17.07;;;6.23;;
3155;SDS011;1588;50.892;7.082;2023-12-07T15:59:26;17.63;;;6.57;;
3155;SDS011;1588;50.892;7.082;2023-12-07T16:04:32;15.43;;;6.80;;
3155;SDS011;1588;50.892;7.082;2023-12-07T16:09:36;14.40;;;5.70;;
3155;SDS011;1588;50.892;7.082;2023-12-07T16:14:41;16.87;;;7.27;;
3155;SDS011;1588;50.892;7.082;2023-12-07T16:19:43;14.93;;;6.33;;
3155;SDS011;1588;50.892;7.082;2023-12-07T16:24:47;24.23;;;7.27;;
3155;SDS011;1588;50.892;7.082;2023-12-07T16:29:51;19.33;;;7.47;;
3155;SDS011;1588;50.892;7.082;2023-12-07T16:34:54;19.93;;;6.33;;
3155;SDS011;1588;50.892;7.082;2023-12-07T16:39:58;15.60;;;7.60;;
3155;SDS011;1588;50.892;7.082;2023-12-07T16:45:00;20.77;;;7.27;;
3155;SDS011;1588;50.892;7.082;2023-12-07T16:50:03;17.80;;;6.87;;
3155;SDS011;1588;50.892;7.082;2023-12-07T16:55:11;15.30;;;7.00;;
3155;SDS011;1588;50.892;7.082;2023-12-07T17:00:16;25.87;;;7.97;;
3155;SDS011;1588;50.892;7.082;2023-12-07T17:05:19;16.20;;;6.50;;
3155;SDS011;1588;50.892;7.082;2023-12-07T17:10:23;22.93;;;8.47;;
3155;SDS011;1588;50.892;7.082;2023-12-07T17:15:25;22.90;;;8.73;;
3155;SDS011;1588;50.892;7.082;2023-12-07T17:20:28;28.50;;;8.13;;
3155;SDS011;1588;50.892;7.082;2023-12-07T17:25:31;20.77;;;8.33;;
3155;SDS011;1588;50.892;7.082;2023-12-07T17:30:34;21.77;;;8.87;;
3155;SDS011;1588;50.892;7.082;2023-12-07T17:35:40;22.40;;;7.50;;
3155;SDS011;1588;50.892;7.082;2023-12-07T17:40:44;24.10;;;8.53;;
3155;SDS011;1588;50.892;7.082;2023-12-07T17:45:46;22.80;;;8.67;;
3155;SDS011;1588;50.892;7.082;2023-12-07T17:50:52;23.00;;;9.20;;
3155;SDS011;1588;50.892;7.082;2023-12-07T17:55:56;20.13;;;7.80;;
3155;SDS011;1588;50.892;7.082;2023-12-07T18:00:59;20.77;;;8.67;;
3155;SDS011;1588;50.892;7.082;2023-12-07T18:06:06;23.10;;;8.80;;
3155;SDS011;1588;50.892;7.082;2023-12-07T18:11:18;23.30;;;9.53;;
3155;SDS011;1588;50.892;7.082;2023-12-07T18:16:21;22.10;;;9.10;;
3155;SDS011;1588;50.892;7.082;2023-12-07T18:21:24;23.43;;;9.20;;
3155;SDS011;1588;50.892;7.082;2023-12-07T18:26:28;18.00;;;7.47;;
3155;SDS011;1588;50.892;7.082;2023-12-07T18:31:31;24.43;;;8.50;;
3155;SDS011;1588;50.892;7.082;2023-12-07T18:36:34;23.70;;;9.23;;
3155;SDS011;1588;50.892;7.082;2023-12-07T18:41:38;20.93;;;8.47;;
3155;SDS011;1588;50.892;7.082;2023-12-07T18:46:40;27.37;;;9.60;;
3155;SDS011;1588;50.892;7.082;2023-12-07T18:51:43;28.93;;;10.70;;
3155;SDS011;1588;50.892;7.082;2023-12-07T18:56:50;19.10;;;7.47;;
3155;SDS011;1588;50.892;7.082;2023-12-07T19:01:52;23.00;;;8.40;;
3155;SDS011;1588;50.892;7.082;2023-12-07T19:06:57;26.10;;;9.60;;
3155;SDS011;1588;50.892;7.082;2023-12-07T19:12:05;21.03;;;8.70;;
3155;SDS011;1588;50.892;7.082;2023-12-07T19:17:07;26.57;;;10.13;;
3155;SDS011;1588;50.892;7.082;2023-12-07T19:22:10;27.43;;;10.80;;
3155;SDS011;1588;50.892;7.082;2023-12-07T19:27:13;23.67;;;7.90;;
3155;SDS011;1588;50.892;7.082;2023-12-07T19:32:17;25.10;;;9.87;;
3155;SDS011;1588;50.892;7.082;2023-12-07T19:37:20;25.90;;;9.87;;
3155;SDS011;1588;50.892;7.082;2023-12-07T19:42:24;27.40;;;8.87;;
3155;SDS011;1588;50.892;7.082;2023-12-07T19:47:26;31.70;;;9.90;;
3155;SDS011;1588;50.892;7.082;2023-12-07T19:52:29;32.00;;;11.20;;
3155;SDS011;1588;50.892;7.082;2023-12-07T19:57:35;35.40;;;11.83;;
3155;SDS011;1588;50.892;7.082;2023-12-07T20:02:42;28.97;;;11.17;;
3155;SDS011;1588;50.892;7.082;2023-12-07T20:07:47;27.03;;;10.77;;
3155;SDS011;1588;50.892;7.082;2023-12-07T20:12:51;33.30;;;11.20;;
3155;SDS011;1588;50.892;7.082;2023-12-07T20:17:53;30.43;;;10.40;;
3155;SDS011;1588;50.892;7.082;2023-12-07T20:22:56;29.10;;;11.60;;
3155;SDS011;1588;50.892;7.082;2023-12-07T20:28:00;25.30;;;11.13;;
3155;SDS011;1588;50.892;7.082;2023-12-07T20:33:03;30.70;;;11.47;;
3155;SDS011;1588;50.892;7.082;2023-12-07T20:38:06;30.83;;;10.40;;
3155;SDS011;1588;50.892;7.082;2023-12-07T20:43:12;37.63;;;11.60;;
3155;SDS011;1588;50.892;7.082;2023-12-07T20:48:15;28.17;;;10.57;;
3155;SDS011;1588;50.892;7.082;2023-12-07T20:53:18;26.80;;;12.73;;
3155;SDS011;1588;50.892;7.082;2023-12-07T20:58:22;26.93;;;9.93;;
3155;SDS011;1588;50.892;7.082;2023-12-07T21:03:25;24.80;;;9.07;;
3155;SDS011;1588;50.892;7.082;2023-12-07T21:08:27;31.80;;;10.60;;
3155;SDS011;1588;50.892;7.082;2023-12-07T21:13:31;25.17;;;9.00;;
3155;SDS011;1588;50.892;7.082;2023-12-07T21:18:34;22.47;;;9.90;;
3155;SDS011;1588;50.892;7.082;2023-12-07T21:23:36;16.73;;;8.00;;
3155;SDS011;1588;50.892;7.082;2023-12-07T21:28:40;21.30;;;8.83;;
3155;SDS011;1588;50.892;7.082;2023-12-07T21:33:45;19.67;;;9.63;;
3155;SDS011;1588;50.892;7.082;2023-12-07T21:38:48;15.03;;;7.30;;
3155;SDS011;1588;50.892;7.082;2023-12-07T21:43:52;22.10;;;8.70;;
3155;SDS011;1588;50.892;7.082;2023-12-07T21:48:54;20.03;;;8.30;;
3155;SDS011;1588;50.892;7.082;2023-12-07T21:53:57;17.30;;;6.70;;
3155;SDS011;1588;50.892;7.082;2023-12-07T21:59:00;19.27;;;7.20;;
3155;SDS011;1588;50.892;7.082;2023-12-07T22:04:06;22.20;;;9.60;;
3155;SDS011;1588;50.892;7.082;2023-12-07T22:09:08;23.37;;;8.10;;
3155;SDS011;1588;50.892;7.082;2023-12-07T22:14:12;22.93;;;8.40;;
3155;SDS011;1588;50.892;7.082;2023-12-07T22:19:15;17.60;;;6.70;;
3155;SDS011;1588;50.892;7.082;2023-12-07T22:24:18;17.03;;;7.77;;
3155;SDS011;1588;50.892;7.082;2023-12-07T22:29:22;21.73;;;8.43;;
3155;SDS011;1588;50.892;7.082;2023-12-07T22:34:24;18.00;;;7.73;;
3155;SDS011;1588;50.892;7.082;2023-12-07T22:39:30;12.70;;;5.90;;
3155;SDS011;1588;50.892;7.082;2023-12-07T22:44:36;16.83;;;7.67;;
3155;SDS011;1588;50.892;7.082;2023-12-07T22:49:41;15.00;;;6.90;;
3155;SDS011;1588;50.892;7.082;2023-12-07T22:54:44;13.30;;;5.73;;
3155;SDS011;1588;50.892;7.082;2023-12-07T22:59:51;10.77;;;5.33;;
3155;SDS011;1588;50.892;7.082;2023-12-07T23:04:57;14.90;;;6.30;;
3155;SDS011;1588;50.892;7.082;2023-12-07T23:10:00;14.33;;;6.03;;
3155;SDS011;1588;50.892;7.082;2023-12-07T23:15:07;16.60;;;7.50;;
3155;SDS011;1588;50.892;7.082;2023-12-07T23:20:13;11.90;;;6.17;;
3155;SDS011;1588;50.892;7.082;2023-12-07T23:25:19;14.33;;;6.37;;
3155;SDS011;1588;50.892;7.082;2023-12-07T23:30:23;19.07;;;7.17;;
3155;SDS011;1588;50.892;7.082;2023-12-07T23:35:26;18.90;;;7.10;;
3155;SDS011;1588;50.892;7.082;2023-12-07T23:40:31;23.27;;;8.10;;
3155;SDS011;1588;50.892;7.082;2023-12-07T23:45:35;17.10;;;6.70;;
3155;SDS011;1588;50.892;7.082;2023-12-07T23:50:38;17.57;;;6.80;;
3155;SDS011;1588;50.892;7.082;2023-12-07T23:55:41;16.60;;;7.87;;
